M I D A S
Marine Information and Data Acquisition System
Tripno 2230 of the Zeeleeuw from 2011-08-17 06:11:50 to 2011-08-17 14:39:30
Back to CruiseResearch ActivitiesStationsMapUnderway DataData graphs

EquipmentUnitsComment
TimeDGPSUTC
LatitudeDGPSDM.mWGS84
LongitudeDGPSDM.mWGS84
TemperatureSBE03/SBE38deg celciusITS90
ConductivitySBE21S/mITS90
SalinitySBE21 Practical Salinity Units
ChlorophylAChelsea fluorimeterg/lCalibrated in Aceton
Missing or incorrect values are displayed as -999
Sea surface data collected by the RV Zeeleeuw from 2011-08-17 06:15:54 to 2011-08-17 14:50:24
Time Latitude Longitude Temperature Conductivity Salinity ChlorophylA
2011-08-17 06:17:02 51°13.643 2°55.987 21.97 0.019064 0.099345 -3.020363
2011-08-17 06:18:03 51°13.658 2°55.923 21.9466 0.019064 0.099354 -3.020363
2011-08-17 06:19:03 51°13.684 2°55.821 21.9867 0.019064 0.099363 -3.020363
2011-08-17 06:20:02 51°13.695 2°55.755 21.9726 0.019064 0.099371 -3.020363
2011-08-17 06:21:00 51°13.714 2°55.787 21.9201 0.019064 0.099381 -3.020363
2011-08-17 06:22:02 51°13.709 2°55.782 21.9985 0.019064 0.099388 -3.020363
2011-08-17 06:23:02 51°13.762 2°55.71 21.904 0.019064 0.099396 -3.020363
2011-08-17 06:24:02 51°13.866 2°55.603 21.9409 0.019167 0.099924 -3.020363
2011-08-17 06:25:02 51°13.992 2°55.512 21.9646 0.019167 0.099933 -3.020363
2011-08-17 06:26:02 51°14.119 2°55.416 21.9908 0.019167 0.09994 -3.020363
2011-08-17 06:27:03 51°14.246 2°55.312 21.9984 0.019167 0.099947 -3.020363
2011-08-17 06:28:03 51°14.374 2°55.191 21.9688 0.019167 0.099954 -3.020363
2011-08-17 06:29:02 51°14.5 2°55.065 22.0005 0.019167 0.099959 -3.020363
2011-08-17 06:30:00 51°14.627 2°54.907 21.9706 0.019167 0.099965 -3.020363
2011-08-17 06:30:59 51°14.775 2°54.721 21.9561 0.019167 0.099972 -3.020363
2011-08-17 06:31:59 51°14.93 2°54.528 21.9359 0.019167 0.099978 -3.020363
2011-08-17 06:33:00 51°15.112 2°54.412 21.9189 0.019269 0.100506 -3.020363
2011-08-17 06:33:59 51°15.296 2°54.361 21.9082 0.019269 0.100515 -3.020363
2011-08-17 06:35:00 51°15.487 2°54.34 21.89 0.019269 0.100527 -3.020363
2011-08-17 06:36:00 51°15.675 2°54.319 21.9142 0.019269 0.100537 -3.020363
2011-08-17 06:37:00 51°15.863 2°54.304 21.9231 0.019269 0.100546 -3.020363
2011-08-17 06:38:00 51°16.038 2°54.304 21.9092 0.019269 0.100556 -3.020363
2011-08-17 06:39:00 51°16.137 2°54.328 21.9296 0.019269 0.100568 -3.020363
2011-08-17 06:40:00 51°16.201 2°54.3 21.9443 0.019269 0.100577 -3.020363
2011-08-17 06:41:00 51°16.24 2°54.284 21.9478 0.019269 0.100586 -3.020363
2011-08-17 06:42:00 51°16.255 2°54.278 21.949 0.019372 0.101118 -3.020363
2011-08-17 06:43:00 51°16.266 2°54.267 21.9479 0.019372 0.101127 -3.020363
2011-08-17 06:44:00 51°16.275 2°54.254 21.9566 0.019372 0.101137 -3.020363
2011-08-17 06:44:59 51°16.281 2°54.239 21.9648 0.019372 0.101145 -3.020363
2011-08-17 06:46:00 51°16.287 2°54.222 21.9778 0.019372 0.101151 -3.020363
2011-08-17 06:47:00 51°16.29 2°54.204 21.9948 0.019372 0.101155 -3.020363
2011-08-17 06:48:00 51°16.293 2°54.185 21.9982 0.019372 0.101157 -3.020363
2011-08-17 06:49:00 51°16.301 2°54.164 22.0104 0.019372 0.101161 -3.020363
2011-08-17 06:50:00 51°16.336 2°54.182 22.0014 0.019372 0.101164 -3.020363
2011-08-17 06:51:00 51°16.317 2°54.244 22.0172 0.019372 0.10117 -3.020363
2011-08-17 06:52:00 51°16.266 2°54.261 22.0449 0.019475 0.101699 -3.020363
2011-08-17 06:53:00 51°16.243 2°54.259 21.9536 0.019475 0.101708 -3.020363
2011-08-17 06:54:00 51°16.23 2°54.25 22.0164 0.019475 0.101716 -3.020363
2011-08-17 06:55:00 51°16.219 2°54.238 22.0339 0.019475 0.101725 -3.020363
2011-08-17 06:56:00 51°16.209 2°54.225 22.0555 0.019475 0.101734 -3.020363
2011-08-17 06:57:00 51°16.2 2°54.21 22.0807 0.019475 0.101742 -3.020363
2011-08-17 06:58:00 51°16.192 2°54.195 22.0999 0.019475 0.101751 -3.020363
2011-08-17 06:59:00 51°16.185 2°54.179 22.1205 0.019475 0.10176 -3.020363
2011-08-17 07:00:00 51°16.178 2°54.163 22.1436 0.019475 0.101767 -3.020363
2011-08-17 07:01:00 51°16.171 2°54.147 22.1564 0.019475 0.101775 -3.020363
2011-08-17 07:02:00 51°16.163 2°54.13 22.1833 0.019475 0.101784 -3.020363
2011-08-17 07:02:59 51°16.157 2°54.114 22.2058 0.019475 0.101791 -3.020363
2011-08-17 07:04:00 51°16.15 2°54.097 22.2289 0.019475 0.101798 -3.020363
2011-08-17 07:05:00 51°16.143 2°54.079 22.2457 0.019475 0.101807 -3.020363
2011-08-17 07:06:00 51°16.136 2°54.064 22.2709 0.019475 0.101815 -3.020363
2011-08-17 07:07:00 51°16.13 2°54.047 22.292 0.019475 0.101822 -3.020363
2011-08-17 07:08:00 51°16.123 2°54.031 22.3149 0.019475 0.101831 -3.020363
2011-08-17 07:09:00 51°16.117 2°54.015 22.3365 0.019578 0.102361 -3.020363
2011-08-17 07:09:59 51°16.11 2°53.998 22.3594 0.019578 0.102372 -3.020363
2011-08-17 07:11:00 51°16.103 2°53.981 22.3808 0.019578 0.102376 -3.020363
2011-08-17 07:12:00 51°16.096 2°53.964 22.3953 0.019578 0.102385 -3.020363
2011-08-17 07:13:00 51°16.077 2°53.96 22.4181 0.019578 0.102393 -3.020363
2011-08-17 07:14:00 51°16.081 2°54.019 22.4531 0.019578 0.102402 -3.020363
2011-08-17 07:15:00 51°16.154 2°53.979 22.4733 0.019578 0.102409 -3.020363
2011-08-17 07:16:00 51°16.308 2°53.812 22.4976 0.019578 0.102415 -3.020363
2011-08-17 07:17:00 51°16.477 2°53.61 22.5197 0.019578 0.102426 -3.020363
2011-08-17 07:18:00 51°16.649 2°53.415 22.5494 0.019578 0.102433 -3.020363
2011-08-17 07:18:59 51°16.811 2°53.205 22.5634 0.019578 0.102443 -3.020363
2011-08-17 07:20:00 51°16.971 2°52.99 22.5851 0.019578 0.102449 -3.020363
2011-08-17 07:21:00 51°17.136 2°52.783 22.6175 0.019578 0.102458 -3.020363
2011-08-17 07:21:59 51°17.3 2°52.581 22.6393 0.019578 0.102468 -3.020363
2011-08-17 07:23:00 51°17.463 2°52.359 22.6675 0.019578 0.102476 -3.020363
2011-08-17 07:24:00 51°17.627 2°52.148 22.6877 0.019578 0.102483 -3.020363
2011-08-17 07:25:00 51°17.777 2°51.911 22.7053 0.019578 0.102491 -3.020363
2011-08-17 07:26:00 51°17.929 2°51.675 22.7322 0.019578 0.102497 -3.020363
2011-08-17 07:27:00 51°18.093 2°51.46 22.7549 0.019578 0.102506 -3.020363
2011-08-17 07:28:00 51°18.247 2°51.22 22.7564 0.019578 0.102512 -3.020363
2011-08-17 07:29:00 51°18.392 2°51.063 22.8026 0.019578 0.102518 -3.020363
2011-08-17 07:29:59 51°18.474 2°51.024 22.8264 0.019578 0.102524 -3.020363
2011-08-17 07:31:00 51°18.511 2°51.014 22.8554 0.019578 0.10253 -3.020363
2011-08-17 07:32:00 51°18.525 2°50.991 22.8795 0.019578 0.102539 -3.020363
2011-08-17 07:33:00 51°18.533 2°50.965 22.8997 0.019578 0.102545 -3.020363
2011-08-17 07:34:00 51°18.538 2°50.938 22.9308 0.019578 0.10255 -3.020363
2011-08-17 07:35:00 51°18.54 2°50.913 22.9529 0.019578 0.102554 -3.020363
2011-08-17 07:36:00 51°18.541 2°50.888 22.975 0.019578 0.102559 -3.020363
2011-08-17 07:36:59 51°18.54 2°50.864 22.9992 0.019578 0.102566 -3.020363
2011-08-17 07:38:00 51°18.537 2°50.841 23.0255 0.019578 0.102571 -3.020363
2011-08-17 07:39:00 51°18.534 2°50.82 23.0505 0.019578 0.102577 -3.020363
2011-08-17 07:40:00 51°18.531 2°50.799 23.0768 0.019578 0.10258 -3.020363
2011-08-17 07:41:00 51°18.527 2°50.778 23.1002 0.019578 0.102586 -3.020363
2011-08-17 07:42:00 51°18.522 2°50.758 23.1203 0.019578 0.102591 -3.020363
2011-08-17 07:43:00 51°18.518 2°50.739 23.1443 0.019578 0.102598 -3.020363
2011-08-17 07:44:00 51°18.512 2°50.72 23.1698 0.019578 0.102603 -3.020363
2011-08-17 07:45:00 51°18.506 2°50.702 23.1893 0.019578 0.102607 -3.020363
2011-08-17 07:46:00 51°18.499 2°50.684 23.216 0.019578 0.102613 -3.020363
2011-08-17 07:47:00 51°18.492 2°50.665 23.2224 0.019578 0.102618 -3.020363
2011-08-17 07:48:00 51°18.484 2°50.648 23.259 0.019578 0.102625 -3.020363
2011-08-17 07:49:00 51°18.476 2°50.63 23.2769 0.019578 0.10263 -3.020363
2011-08-17 07:50:00 51°18.467 2°50.611 23.3005 0.019578 0.102638 -3.020363
2011-08-17 07:51:00 51°18.459 2°50.594 23.3288 0.019578 0.102642 -3.020363
2011-08-17 07:52:00 51°18.45 2°50.576 23.3445 0.019578 0.102647 -3.020363
2011-08-17 07:53:00 51°18.442 2°50.558 23.3701 0.019578 0.10265 -3.020363
2011-08-17 07:54:00 51°18.433 2°50.54 23.3923 0.019578 0.102653 -3.020363
2011-08-17 07:55:00 51°18.424 2°50.522 23.417 0.019578 0.102654 -3.020363
2011-08-17 07:56:00 51°18.416 2°50.504 23.4339 0.019578 0.102654 -3.020363
2011-08-17 07:57:00 51°18.408 2°50.486 23.455 0.019578 0.102651 -3.020363
2011-08-17 07:58:00 51°18.396 2°50.466 23.4798 0.019578 0.10265 -3.020363
2011-08-17 07:59:00 51°18.392 2°50.45 23.5002 0.019475 0.102124 -3.020363
2011-08-17 08:00:00 51°18.39 2°50.436 23.4849 0.019475 0.102119 -3.020363
2011-08-17 08:01:00 51°18.419 2°50.534 23.5349 0.019578 0.102641 -3.020363
2011-08-17 08:02:00 51°18.482 2°50.787 23.5316 0.019475 0.102113 -3.020363
2011-08-17 08:03:00 51°18.519 2°51.085 23.5598 0.019475 0.10211 -3.020363
2011-08-17 08:04:00 51°18.573 2°51.375 23.5861 0.019578 0.102633 -3.020363
2011-08-17 08:05:00 51°18.627 2°51.666 23.6059 0.019475 0.10211 -3.020363
2011-08-17 08:06:00 51°18.675 2°51.962 23.6261 0.019475 0.102115 -3.020363
2011-08-17 08:07:00 51°18.709 2°52.26 23.641 0.019475 0.102118 -3.020363
2011-08-17 08:08:00 51°18.759 2°52.553 23.6649 0.019475 0.102126 -3.020363
2011-08-17 08:09:00 51°18.801 2°52.849 23.6764 0.019475 0.102133 -3.020363
2011-08-17 08:10:00 51°18.844 2°53.144 23.7049 0.019475 0.102142 -3.020363
2011-08-17 08:11:00 51°18.903 2°53.429 23.723 0.019475 0.102153 -3.020363
2011-08-17 08:12:00 51°18.942 2°53.724 23.7422 0.019475 0.102162 -3.020363
2011-08-17 08:13:00 51°18.993 2°54.014 23.7618 0.019475 0.102172 -3.020363
2011-08-17 08:14:00 51°19.044 2°54.302 23.7735 0.019475 0.102181 -3.020363
2011-08-17 08:15:00 51°19.082 2°54.597 23.7949 0.019475 0.102192 -3.020363
2011-08-17 08:16:00 51°19.144 2°54.88 23.818 0.019475 0.102201 -3.020363
2011-08-17 08:17:00 51°19.202 2°55.167 23.8364 0.019475 0.102208 -3.020363
2011-08-17 08:18:00 51°19.261 2°55.45 23.8526 0.019475 0.102216 -3.020363
2011-08-17 08:19:00 51°19.339 2°55.72 23.873 0.019475 0.102225 -3.020363
2011-08-17 08:20:00 51°19.404 2°56 23.8893 0.019475 0.102234 -3.020363
2011-08-17 08:21:00 51°19.479 2°56.271 23.9064 0.019475 0.102242 -3.020363
2011-08-17 08:22:00 51°19.565 2°56.533 23.9257 0.019475 0.102249 -3.020363
2011-08-17 08:23:00 51°19.645 2°56.792 23.9457 0.019475 0.102254 -3.020363
2011-08-17 08:24:00 51°19.706 2°57.059 23.9625 0.019475 0.10226 -3.020363
2011-08-17 08:25:00 51°19.762 2°57.327 23.9791 0.019475 0.102263 -3.020363
2011-08-17 08:26:00 51°19.834 2°57.585 23.9987 0.019475 0.102267 -3.020363
2011-08-17 08:27:00 51°19.895 2°57.85 24.0192 0.019475 0.102272 -3.020363
2011-08-17 08:28:00 51°19.962 2°58.11 24.0356 0.019475 0.102275 -3.020363
2011-08-17 08:29:00 51°20.034 2°58.365 24.0543 0.019475 0.10228 -3.020363
2011-08-17 08:30:00 51°20.094 2°58.629 24.0706 0.019475 0.102283 -3.020363
2011-08-17 08:31:00 51°20.157 2°58.891 24.0892 0.019475 0.102286 -3.020363
2011-08-17 08:32:00 51°20.214 2°59.155 24.1049 0.019475 0.102289 -3.020363
2011-08-17 08:33:00 51°20.273 2°59.416 24.1226 0.019372 0.101767 -3.020363
2011-08-17 08:34:00 51°20.32 2°59.68 24.1403 0.019372 0.101768 -3.020363
2011-08-17 08:35:00 51°20.376 2°59.94 24.1582 0.019372 0.101771 -3.020363
2011-08-17 08:36:00 51°20.399 3°0.215 24.1747 0.019372 0.101773 -3.020363
2011-08-17 08:37:00 51°20.426 3°0.488 24.1944 0.019372 0.101774 -3.020363
2011-08-17 08:37:59 51°20.47 3°0.749 24.2104 0.019372 0.101777 -3.020363
2011-08-17 08:39:00 51°20.51 3°1.025 24.2271 0.019372 0.101782 -3.020363
2011-08-17 08:40:00 51°20.536 3°1.302 24.2421 0.019372 0.101785 -3.020363
2011-08-17 08:41:00 51°20.571 3°1.581 24.2603 0.019372 0.101789 -3.020363
2011-08-17 08:42:00 51°20.591 3°1.862 24.2761 0.019372 0.101794 -3.020363
2011-08-17 08:43:00 51°20.614 3°2.138 24.2914 0.019372 0.101798 -3.020363
2011-08-17 08:44:00 51°20.649 3°2.368 24.3071 0.019372 0.101804 -3.020363
2011-08-17 08:44:59 51°20.674 3°2.522 24.3231 0.019372 0.10181 -3.020363
2011-08-17 08:46:00 51°20.691 3°2.579 24.3397 0.019372 0.101813 -3.020363
2011-08-17 08:47:00 51°20.713 3°2.575 24.3552 0.019372 0.101818 -3.020363
2011-08-17 08:48:00 51°20.712 3°2.537 24.3716 0.019372 0.101818 -3.020363
2011-08-17 08:49:00 51°20.711 3°2.495 24.3868 0.019372 0.101819 -3.020363
2011-08-17 08:50:00 51°20.707 3°2.453 24.403 0.019372 0.101818 -3.020363
2011-08-17 08:51:00 51°20.702 3°2.41 24.42 0.019372 0.101816 -3.020363
2011-08-17 08:52:00 51°20.695 3°2.368 24.4353 0.019372 0.101816 -3.020363
2011-08-17 08:53:00 51°20.688 3°2.327 24.4512 0.019372 0.101815 -3.020363
2011-08-17 08:54:00 51°20.679 3°2.287 24.4663 0.019372 0.101815 -3.020363
2011-08-17 08:55:00 51°20.671 3°2.248 24.4805 0.019372 0.101815 -3.020363
2011-08-17 08:55:59 51°20.662 3°2.211 24.4967 0.019372 0.101815 -3.020363
2011-08-17 08:57:00 51°20.651 3°2.173 24.5145 0.019372 0.101816 -3.020363
2011-08-17 08:58:00 51°20.64 3°2.137 24.5289 0.019372 0.101815 -3.020363
2011-08-17 08:59:00 51°20.632 3°2.102 24.5554 0.019372 0.101813 -3.020363
2011-08-17 09:00:00 51°20.647 3°2.17 24.5624 0.019372 0.101812 -3.020363
2011-08-17 09:01:00 51°20.682 3°2.352 24.5898 0.019269 0.101287 -3.020363
2011-08-17 09:02:00 51°20.729 3°2.524 24.5915 0.019269 0.101285 -3.020363
2011-08-17 09:03:00 51°20.759 3°2.546 24.6067 0.019269 0.101284 -3.020363
2011-08-17 09:04:00 51°20.765 3°2.52 24.6202 0.019269 0.101281 -3.020363
2011-08-17 09:05:00 51°20.767 3°2.488 24.6404 0.019269 0.101278 -3.020363
2011-08-17 09:06:00 51°20.766 3°2.455 24.6481 0.019269 0.101276 -3.020363
2011-08-17 09:07:00 51°20.781 3°2.451 24.673 0.019269 0.101272 -3.020363
2011-08-17 09:08:00 51°20.811 3°2.598 24.6815 0.019269 0.10127 -3.020363
2011-08-17 09:09:00 51°20.877 3°2.847 24.7097 0.019269 0.101269 -3.020363
2011-08-17 09:10:00 51°20.947 3°3.105 24.7302 0.019269 0.101267 -3.020363
2011-08-17 09:11:00 51°20.996 3°3.378 24.7272 0.019269 0.101264 -3.020363
2011-08-17 09:12:00 51°21.054 3°3.644 24.7461 0.019269 0.101261 -3.020363
2011-08-17 09:13:00 51°21.108 3°3.912 24.7722 0.019269 0.10126 -3.020363
2011-08-17 09:14:00 51°21.171 3°4.174 24.7759 0.019269 0.101257 -3.020363
2011-08-17 09:15:00 51°21.232 3°4.437 24.8037 0.019269 0.101255 -3.020363
2011-08-17 09:16:00 51°21.282 3°4.708 24.8017 0.019269 0.101252 -3.020363
2011-08-17 09:17:00 51°21.331 3°4.984 24.8316 0.019269 0.101249 -3.020363
2011-08-17 09:18:00 51°21.4 3°5.254 24.8326 0.019269 0.101248 -3.020363
2011-08-17 09:19:00 51°21.47 3°5.525 24.849 0.019269 0.101243 -3.020363
2011-08-17 09:20:00 51°21.54 3°5.798 24.8698 0.019269 0.10124 -3.020363
2011-08-17 09:21:00 51°21.599 3°6.081 24.878 0.019269 0.101236 -3.020363
2011-08-17 09:22:00 51°21.665 3°6.357 24.8899 0.019269 0.101234 -3.020363
2011-08-17 09:23:00 51°21.743 3°6.623 24.915 0.019269 0.10123 -3.020363
2011-08-17 09:24:00 51°21.814 3°6.892 24.9229 0.019269 0.101225 -3.020363
2011-08-17 09:25:00 51°21.876 3°7.167 24.9404 0.019269 0.101221 -3.020363
2011-08-17 09:26:00 51°21.939 3°7.438 24.9604 0.019269 0.101218 -3.020363
2011-08-17 09:27:00 51°21.988 3°7.718 24.9623 0.019269 0.101215 -3.020363
2011-08-17 09:28:00 51°22.048 3°7.992 25.005 0.019269 0.101212 -3.020363
2011-08-17 09:29:00 51°22.086 3°8.275 25.0336 0.019269 0.101207 -3.020363
2011-08-17 09:30:00 51°22.1 3°8.568 25.0424 0.019269 0.101204 -3.020363
2011-08-17 09:31:00 51°22.129 3°8.857 25.0598 0.019269 0.101203 -3.020363
2011-08-17 09:31:59 51°22.161 3°9.138 25.0785 0.019269 0.1012 -3.020363
2011-08-17 09:33:00 51°22.194 3°9.432 25.079 0.019269 0.101198 -3.020363
2011-08-17 09:34:00 51°22.227 3°9.72 25.1101 0.019269 0.101197 -3.020363
2011-08-17 09:35:00 51°22.238 3°10.016 25.1026 0.019269 0.101194 -3.020363
2011-08-17 09:36:00 51°22.251 3°10.311 25.1331 0.019269 0.101192 -3.020363
2011-08-17 09:37:00 51°22.278 3°10.608 25.1287 0.019269 0.101189 -3.020363
2011-08-17 09:38:00 51°22.298 3°10.911 25.1415 0.019269 0.101186 -3.020363
2011-08-17 09:39:00 51°22.317 3°11.209 25.1585 0.019269 0.101183 -3.020363
2011-08-17 09:40:00 51°22.347 3°11.506 25.1617 0.019269 0.101182 -3.020363
2011-08-17 09:41:00 51°22.385 3°11.805 25.192 0.019269 0.101179 -3.020363
2011-08-17 09:42:00 51°22.41 3°12.108 25.1846 0.019167 0.100652 -3.020363
2011-08-17 09:43:00 51°22.44 3°12.408 25.1967 0.019167 0.100649 -3.020363
2011-08-17 09:44:00 51°22.475 3°12.706 25.2143 0.019167 0.100646 -3.020363
2011-08-17 09:45:00 51°22.495 3°12.957 25.2212 0.019167 0.100643 -3.020363
2011-08-17 09:46:00 51°22.509 3°13.092 25.2377 0.019167 0.10064 -3.020363
2011-08-17 09:47:00 51°22.534 3°13.196 25.2436 0.019167 0.100634 -3.020363
2011-08-17 09:48:00 51°22.569 3°13.272 25.2451 0.019167 0.100631 -3.020363
2011-08-17 09:49:00 51°22.616 3°13.266 25.2715 0.019167 0.100625 -3.020363
2011-08-17 09:50:00 51°22.638 3°13.245 25.2725 0.019167 0.10062 -3.020363
2011-08-17 09:51:00 51°22.653 3°13.221 25.2982 0.019167 0.100616 -3.020363
2011-08-17 09:52:00 51°22.663 3°13.197 25.3193 0.019167 0.100613 -3.020363
2011-08-17 09:53:00 51°22.672 3°13.173 25.3188 0.019167 0.10061 -3.020363
2011-08-17 09:54:00 51°22.679 3°13.148 25.3416 0.019167 0.100609 -3.020363
2011-08-17 09:55:00 51°22.684 3°13.124 25.3406 0.019167 0.100607 -3.020363
2011-08-17 09:56:00 51°22.688 3°13.1 25.3455 0.019167 0.100606 -3.020363
2011-08-17 09:56:59 51°22.69 3°13.076 25.3616 0.019167 0.100606 -3.020363
2011-08-17 09:58:00 51°22.691 3°13.051 25.3778 0.019167 0.100604 -3.020363
2011-08-17 09:59:00 51°22.692 3°13.028 25.3834 0.019167 0.100603 -3.020363
2011-08-17 10:00:00 51°22.693 3°13.006 25.3962 0.019167 0.100603 -3.020363
2011-08-17 10:01:00 51°22.693 3°12.984 25.4111 0.019167 0.100601 -3.020363
2011-08-17 10:02:00 51°22.692 3°12.963 25.4102 0.019167 0.100601 -3.020363
2011-08-17 10:03:00 51°22.697 3°12.938 25.4432 0.019167 0.1006 -3.020363
2011-08-17 10:04:00 51°22.731 3°12.924 25.4479 0.019167 0.100598 -3.020363
2011-08-17 10:05:00 51°22.74 3°12.976 25.5024 0.019167 0.100598 -3.020363
2011-08-17 10:06:00 51°22.705 3°13.03 25.438 0.019064 0.100073 -3.020363
2011-08-17 10:07:00 51°22.73 3°13.089 25.4508 0.019064 0.100073 -3.020363
2011-08-17 10:08:00 51°22.851 3°13.05 25.5142 0.019064 0.10007 -3.020363
2011-08-17 10:09:00 51°23.04 3°12.955 25.519 0.019064 0.100066 -3.020363
2011-08-17 10:10:00 51°23.208 3°12.751 25.5515 0.019064 0.100063 -3.020363
2011-08-17 10:11:00 51°23.364 3°12.523 25.5531 0.019064 0.100057 -3.020363
2011-08-17 10:12:00 51°23.53 3°12.322 25.545 0.019064 0.100052 -3.020363
2011-08-17 10:13:00 51°23.687 3°12.098 25.5779 0.019064 0.100052 -3.020363
2011-08-17 10:14:00 51°23.849 3°11.888 25.5684 0.019064 0.100058 -3.020363
2011-08-17 10:15:00 51°24 3°11.653 25.5705 0.019064 0.100069 -3.020363
2011-08-17 10:16:00 51°24.142 3°11.397 25.5801 0.019064 0.10008 -3.020363
2011-08-17 10:17:00 51°24.246 3°11.093 25.5899 0.019064 0.100099 -3.020363
2011-08-17 10:18:00 51°24.302 3°10.748 25.6009 0.019064 0.100119 -3.020363
2011-08-17 10:19:00 51°24.36 3°10.404 25.6119 0.019064 0.100139 -3.020363
2011-08-17 10:20:00 51°24.432 3°10.072 25.6032 0.019064 0.100158 -3.020363
2011-08-17 10:21:00 51°24.498 3°9.753 25.6414 0.019064 0.100179 -3.020363
2011-08-17 10:22:00 51°24.565 3°9.441 25.6192 0.019064 0.100198 -3.020363
2011-08-17 10:23:00 51°24.637 3°9.135 25.654 0.019064 0.100216 -3.020363
2011-08-17 10:24:00 51°24.731 3°8.851 25.6525 0.018961 0.09971 -3.020363
2011-08-17 10:25:00 51°24.827 3°8.57 25.6693 0.018961 0.099729 -3.020363
2011-08-17 10:26:00 51°24.93 3°8.3 25.64 0.018961 0.099749 -3.020363
2011-08-17 10:27:00 51°25.034 3°8.037 25.7394 0.018961 0.099765 -3.020363
2011-08-17 10:28:00 51°25.19 3°7.886 25.7308 0.018961 0.099781 -3.020363
2011-08-17 10:29:00 51°25.362 3°7.941 25.7127 0.018961 0.099799 -3.020363
2011-08-17 10:30:00 51°25.532 3°8.024 25.7275 0.018961 0.099813 -3.020363
2011-08-17 10:31:00 51°25.701 3°8.102 25.717 0.018961 0.099822 -3.020363
2011-08-17 10:32:00 51°25.872 3°8.174 25.7151 0.018961 0.099831 -3.020363
2011-08-17 10:32:59 51°26.037 3°8.247 25.7375 0.018961 0.099835 -3.020363
2011-08-17 10:34:00 51°26.19 3°8.392 25.7331 0.018961 0.099841 -3.020363
2011-08-17 10:35:00 51°26.346 3°8.484 25.7287 0.018961 0.099847 -3.020363
2011-08-17 10:36:00 51°26.432 3°8.549 25.7308 0.018961 0.09985 -3.020363
2011-08-17 10:37:00 51°26.467 3°8.578 25.7442 0.018961 0.099855 -3.020363
2011-08-17 10:38:00 51°26.478 3°8.575 25.731 0.018961 0.099856 -3.020363
2011-08-17 10:39:00 51°26.469 3°8.576 25.7435 0.018961 0.099859 -3.020363
2011-08-17 10:40:00 51°26.453 3°8.577 25.7312 0.018961 0.099857 -3.020363
2011-08-17 10:41:00 51°26.432 3°8.575 25.7356 0.018961 0.099857 -3.020363
2011-08-17 10:42:00 51°26.41 3°8.575 25.7554 0.018858 0.099329 -3.020363
2011-08-17 10:43:00 51°26.389 3°8.573 25.7425 0.018858 0.099326 -3.020363
2011-08-17 10:44:00 51°26.365 3°8.568 25.7448 0.018858 0.099322 -3.020363
2011-08-17 10:45:00 51°26.34 3°8.561 25.7532 0.018858 0.099317 -3.020363
2011-08-17 10:46:00 51°26.313 3°8.552 25.7502 0.018858 0.099313 -3.020363
2011-08-17 10:47:00 51°26.286 3°8.548 25.7434 0.018858 0.09931 -3.020363
2011-08-17 10:48:00 51°26.314 3°8.566 25.7394 0.018858 0.099307 -3.020363
2011-08-17 10:49:00 51°26.383 3°8.46 25.7855 0.018858 0.099303 -3.020363
2011-08-17 10:50:00 51°26.468 3°8.358 25.7821 0.018858 0.099298 -3.020363
2011-08-17 10:51:00 51°26.491 3°8.329 25.7831 0.018858 0.099298 -3.020363
2011-08-17 10:52:01 51°26.467 3°8.313 25.7903 0.018858 0.099298 -3.020363
2011-08-17 10:53:04 51°26.441 3°8.298 25.7987 0.018858 0.0993 -3.020363
2011-08-17 10:54:03 51°26.415 3°8.284 25.7895 0.018858 0.099297 -3.020363
2011-08-17 10:55:01 51°26.389 3°8.271 25.7899 0.018858 0.099295 -3.020363
2011-08-17 10:56:00 51°26.361 3°8.259 25.7831 0.018858 0.099292 -3.020363
2011-08-17 10:57:00 51°26.333 3°8.246 25.8063 0.018858 0.099287 -3.020363
2011-08-17 10:58:00 51°26.304 3°8.233 25.798 0.018858 0.099281 -3.020363
2011-08-17 10:59:00 51°26.274 3°8.222 25.8113 0.018858 0.099276 -3.020363
2011-08-17 11:00:00 51°26.244 3°8.21 25.8135 0.018858 0.09927 -3.020363
2011-08-17 11:01:00 51°26.213 3°8.2 25.8101 0.018858 0.099268 -3.020363
2011-08-17 11:02:00 51°26.181 3°8.209 25.8107 0.018858 0.099263 -3.020363
2011-08-17 11:03:00 51°26.194 3°8.248 25.7645 0.018858 0.09926 -3.020363
2011-08-17 11:04:00 51°26.282 3°8.143 25.8754 0.018858 0.099257 -3.020363
2011-08-17 11:05:00 51°26.417 3°7.944 25.8589 0.018858 0.099256 -3.020363
2011-08-17 11:06:00 51°26.529 3°7.682 25.8635 0.018858 0.099259 -3.020363
2011-08-17 11:07:00 51°26.655 3°7.434 25.8642 0.018858 0.099266 -3.020363
2011-08-17 11:08:00 51°26.772 3°7.17 25.8813 0.018858 0.099278 -3.020363
2011-08-17 11:09:00 51°26.875 3°6.887 25.9048 0.018858 0.099295 -3.020363
2011-08-17 11:10:00 51°26.991 3°6.619 25.8719 0.018858 0.099316 -3.020363
2011-08-17 11:11:00 51°27.082 3°6.321 25.9371 0.018858 0.099335 -3.020363
2011-08-17 11:12:00 51°27.187 3°6.035 25.8882 0.018858 0.099352 -3.020363
2011-08-17 11:13:00 51°27.28 3°5.734 25.9477 0.018858 0.099371 -3.020363
2011-08-17 11:14:00 51°27.387 3°5.449 25.9009 0.018858 0.099386 -3.020363
2011-08-17 11:15:00 51°27.464 3°5.135 25.9049 0.018755 0.098878 -3.020363
2011-08-17 11:16:00 51°27.49 3°4.786 25.9109 0.018755 0.098893 -3.020363
2011-08-17 11:17:00 51°27.508 3°4.434 25.9597 0.018755 0.098909 -3.020363
2011-08-17 11:18:00 51°27.554 3°4.092 26.0104 0.018755 0.098922 -3.020363
2011-08-17 11:19:00 51°27.656 3°3.798 25.938 0.018755 0.098936 -3.020363
2011-08-17 11:20:00 51°27.802 3°3.571 25.9463 0.018755 0.098952 -3.020363
2011-08-17 11:21:00 51°27.955 3°3.373 25.9329 0.018755 0.09897 -3.020363
2011-08-17 11:22:00 51°28.062 3°3.286 25.9283 0.018755 0.098987 -3.020363
2011-08-17 11:23:00 51°28.129 3°3.269 25.9524 0.018755 0.099006 -3.020363
2011-08-17 11:24:00 51°28.175 3°3.292 25.9183 0.018755 0.09902 -3.020363
2011-08-17 11:25:00 51°28.21 3°3.328 25.9196 0.018755 0.099031 -3.020363
2011-08-17 11:26:00 51°28.256 3°3.399 25.9271 0.018755 0.099037 -3.020363
2011-08-17 11:27:00 51°28.289 3°3.455 25.9302 0.018755 0.099042 -3.020363
2011-08-17 11:28:00 51°28.278 3°3.475 25.9385 0.018755 0.099045 -3.020363
2011-08-17 11:29:00 51°28.256 3°3.484 25.9306 0.018755 0.099045 -3.020363
2011-08-17 11:30:00 51°28.232 3°3.483 25.937 0.018755 0.099043 -3.020363
2011-08-17 11:31:00 51°28.208 3°3.478 25.9458 0.018755 0.099042 -3.020363
2011-08-17 11:32:00 51°28.185 3°3.469 25.9439 0.018755 0.09904 -3.020363
2011-08-17 11:33:00 51°28.161 3°3.457 25.9466 0.018755 0.099037 -3.020363
2011-08-17 11:34:00 51°28.138 3°3.441 25.9488 0.018653 0.098508 -3.020363
2011-08-17 11:35:00 51°28.113 3°3.423 25.9418 0.018653 0.098506 -3.020363
2011-08-17 11:36:00 51°28.089 3°3.403 25.9646 0.018653 0.098502 -3.020363
2011-08-17 11:37:00 51°28.065 3°3.383 25.9442 0.018653 0.0985 -3.020363
2011-08-17 11:38:00 51°28.039 3°3.361 25.9514 0.018653 0.098496 -3.020363
2011-08-17 11:39:00 51°28.03 3°3.389 25.9305 0.018653 0.098493 -3.020363
2011-08-17 11:40:00 51°28.079 3°3.378 26.0305 0.018653 0.09849 -3.020363
2011-08-17 11:41:00 51°28.154 3°3.323 25.9879 0.018653 0.098487 -3.020363
2011-08-17 11:42:00 51°28.23 3°3.33 25.9926 0.018653 0.09849 -3.020363
2011-08-17 11:43:00 51°28.276 3°3.404 25.9991 0.018653 0.098496 -3.020363
2011-08-17 11:44:00 51°28.281 3°3.455 25.9867 0.018653 0.098499 -3.020363
2011-08-17 11:45:00 51°28.258 3°3.465 25.9862 0.018653 0.098499 -3.020363
2011-08-17 11:46:00 51°28.232 3°3.467 25.9879 0.018653 0.0985 -3.020363
2011-08-17 11:47:00 51°28.207 3°3.463 25.972 0.018653 0.098499 -3.020363
2011-08-17 11:48:00 51°28.183 3°3.456 25.9686 0.018653 0.098497 -3.020363
2011-08-17 11:49:00 51°28.158 3°3.446 26.0179 0.018653 0.098497 -3.020363
2011-08-17 11:50:00 51°28.134 3°3.435 25.9868 0.018653 0.098494 -3.020363
2011-08-17 11:51:00 51°28.109 3°3.422 26.0164 0.018653 0.098493 -3.020363
2011-08-17 11:52:00 51°28.084 3°3.408 26.0023 0.018653 0.098492 -3.020363
2011-08-17 11:53:00 51°28.06 3°3.393 25.9984 0.018653 0.09849 -3.020363
2011-08-17 11:54:00 51°28.035 3°3.378 25.9914 0.018653 0.09849 -3.020363
2011-08-17 11:55:00 51°28.012 3°3.361 26.0196 0.018653 0.098489 -3.020363
2011-08-17 11:56:00 51°27.987 3°3.344 25.9795 0.018653 0.098487 -3.020363
2011-08-17 11:57:00 51°27.944 3°3.366 26.0399 0.018653 0.098486 -3.020363
2011-08-17 11:58:00 51°27.851 3°3.305 26.0171 0.018653 0.098484 -3.020363
2011-08-17 11:59:00 51°27.679 3°3.104 26.0748 0.018653 0.098486 -3.020363
2011-08-17 12:00:00 51°27.492 3°2.884 26.0608 0.018653 0.098483 -3.020363
2011-08-17 12:01:00 51°27.306 3°2.663 26.0601 0.018653 0.09848 -3.020363
2011-08-17 12:02:00 51°27.126 3°2.42 26.0424 0.018653 0.098477 -3.020363
2011-08-17 12:03:00 51°26.945 3°2.18 26.0448 0.018653 0.098471 -3.020363
2011-08-17 12:04:00 51°26.756 3°1.958 26.0959 0.018653 0.098465 -3.020363
2011-08-17 12:05:00 51°26.56 3°1.753 26.0784 0.01855 0.097933 -3.020363
2011-08-17 12:06:00 51°26.372 3°1.534 26.0883 0.01855 0.097928 -3.020363
2011-08-17 12:07:00 51°26.183 3°1.323 26.0935 0.01855 0.09792 -3.020363
2011-08-17 12:08:00 51°26 3°1.1 26.121 0.01855 0.097913 -3.020363
2011-08-17 12:09:00 51°25.812 3°0.889 26.0759 0.01855 0.097906 -3.020363
2011-08-17 12:10:00 51°25.635 3°0.658 26.0789 0.01855 0.097899 -3.020363
2011-08-17 12:11:00 51°25.453 3°0.441 26.0896 0.01855 0.097892 -3.020363
2011-08-17 12:12:00 51°25.277 3°0.211 26.065 0.01855 0.097884 -3.020363
2011-08-17 12:13:00 51°25.094 2°59.994 26.0813 0.01855 0.097877 -3.020363
2011-08-17 12:14:00 51°24.915 2°59.772 26.0779 0.01855 0.097868 -3.020363
2011-08-17 12:15:00 51°24.743 2°59.534 26.0786 0.01855 0.097863 -3.020363
2011-08-17 12:16:00 51°24.566 2°59.309 26.0925 0.01855 0.097854 -3.020363
2011-08-17 12:17:00 51°24.382 2°59.097 26.1088 0.01855 0.097847 -3.020363
2011-08-17 12:18:00 51°24.211 2°58.86 26.0913 0.01855 0.09784 -3.020363
2011-08-17 12:19:00 51°24.035 2°58.632 26.153 0.01855 0.097831 -3.020363
2011-08-17 12:20:00 51°23.868 2°58.385 26.0869 0.01855 0.097824 -3.020363
2011-08-17 12:21:00 51°23.69 2°58.156 26.1149 0.01855 0.097815 -3.020363
2011-08-17 12:22:00 51°23.518 2°57.916 26.1188 0.01855 0.097808 -3.020363
2011-08-17 12:23:00 51°23.349 2°57.672 26.1349 0.01855 0.097799 -3.020363
2011-08-17 12:24:00 51°23.168 2°57.452 26.1378 0.01855 0.097792 -3.020363
2011-08-17 12:25:00 51°22.995 2°57.219 26.1361 0.01855 0.097784 -3.020363
2011-08-17 12:26:00 51°22.825 2°56.991 26.1526 0.01855 0.097776 -3.020363
2011-08-17 12:27:00 51°22.656 2°56.762 26.1169 0.01855 0.097768 -3.020363
2011-08-17 12:28:00 51°22.485 2°56.535 26.1731 0.01855 0.097761 -3.020363
2011-08-17 12:29:00 51°22.319 2°56.301 26.1298 0.01855 0.097752 -3.020363
2011-08-17 12:30:00 51°22.144 2°56.082 26.1391 0.01855 0.097745 -3.020363
2011-08-17 12:31:00 51°21.965 2°55.868 26.1356 0.01855 0.097736 -3.020363
2011-08-17 12:32:00 51°21.794 2°55.638 26.1465 0.01855 0.097728 -3.020363
2011-08-17 12:33:00 51°21.618 2°55.422 26.1666 0.01855 0.097719 -3.020363
2011-08-17 12:34:00 51°21.45 2°55.191 26.121 0.01855 0.09771 -3.020363
2011-08-17 12:35:00 51°21.267 2°54.99 26.1638 0.01855 0.097703 -3.020363
2011-08-17 12:36:00 51°21.083 2°54.79 26.1753 0.01855 0.097693 -3.020363
2011-08-17 12:37:00 51°20.907 2°54.573 26.1748 0.01855 0.097686 -3.020363
2011-08-17 12:38:00 51°20.731 2°54.36 26.166 0.01855 0.097677 -3.020363
2011-08-17 12:39:00 51°20.55 2°54.161 26.1768 0.01855 0.097669 -3.020363
2011-08-17 12:40:00 51°20.368 2°53.965 26.165 0.01855 0.097659 -3.020363
2011-08-17 12:41:00 51°20.186 2°53.772 26.2031 0.01855 0.09765 -3.020363
2011-08-17 12:42:00 51°20.013 2°53.556 26.1622 0.01855 0.097642 -3.020363
2011-08-17 12:43:00 51°19.841 2°53.336 26.1702 0.01855 0.097633 -3.020363
2011-08-17 12:44:00 51°19.661 2°53.139 26.1821 0.01855 0.097623 -3.020363
2011-08-17 12:45:00 51°19.488 2°52.926 26.2593 0.01855 0.097614 -3.020363
2011-08-17 12:46:00 51°19.316 2°52.709 26.1855 0.01855 0.097604 -3.020363
2011-08-17 12:47:00 51°19.136 2°52.509 26.2306 0.01855 0.097596 -3.020363
2011-08-17 12:48:00 51°18.967 2°52.287 26.2105 0.01855 0.097586 -3.020363
2011-08-17 12:49:00 51°18.788 2°52.093 26.2292 0.01855 0.097577 -3.020363
2011-08-17 12:50:00 51°18.619 2°51.874 26.229 0.01855 0.097567 -3.020363
2011-08-17 12:51:00 51°18.448 2°51.663 26.2441 0.01855 0.097557 -3.020363
2011-08-17 12:52:00 51°18.276 2°51.46 26.2415 0.01855 0.097544 -3.020363
2011-08-17 12:53:00 51°18.114 2°51.233 26.2572 0.01855 0.097533 -3.020363
2011-08-17 12:54:00 51°17.946 2°51.02 26.2266 0.01855 0.097522 -3.020363
2011-08-17 12:55:00 51°17.774 2°50.818 26.2526 0.01855 0.09751 -3.020363
2011-08-17 12:56:00 51°17.618 2°50.587 26.2404 0.01855 0.097499 -3.020363
2011-08-17 12:57:00 51°17.45 2°50.384 26.2544 0.01855 0.097487 -3.020363
2011-08-17 12:58:00 51°17.288 2°50.176 26.2612 0.01855 0.097477 -3.020363
2011-08-17 12:59:00 51°17.137 2°49.954 26.2607 0.01855 0.097466 -3.020363
2011-08-17 13:00:00 51°16.983 2°49.74 26.2519 0.01855 0.097455 -3.020363
2011-08-17 13:01:00 51°16.818 2°49.547 26.2762 0.01855 0.097445 -3.020363
2011-08-17 13:02:00 51°16.657 2°49.345 26.3106 0.01855 0.097433 -3.020363
2011-08-17 13:03:00 51°16.492 2°49.154 26.2985 0.01855 0.097422 -3.020363
2011-08-17 13:04:00 51°16.336 2°48.952 26.2927 0.01855 0.097411 -3.020363
2011-08-17 13:05:00 51°16.173 2°48.768 26.2852 0.01855 0.097401 -3.020363
2011-08-17 13:06:00 51°16.02 2°48.57 26.274 0.01855 0.097389 -3.020363
2011-08-17 13:07:00 51°15.867 2°48.377 26.2925 0.01855 0.097378 -3.020363
2011-08-17 13:08:00 51°15.706 2°48.196 26.3098 0.01855 0.097368 -3.020363
2011-08-17 13:09:00 51°15.548 2°48.012 26.3148 0.01855 0.097357 -3.020363
2011-08-17 13:10:00 51°15.397 2°47.815 26.3025 0.01855 0.097347 -3.020363
2011-08-17 13:11:00 51°15.24 2°47.632 26.3384 0.01855 0.097337 -3.020363
2011-08-17 13:12:00 51°15.086 2°47.444 26.3192 0.01855 0.097325 -3.020363
2011-08-17 13:13:00 51°14.928 2°47.259 26.3129 0.01855 0.097316 -3.020363
2011-08-17 13:14:00 51°14.765 2°47.084 26.3329 0.01855 0.097304 -3.020363
2011-08-17 13:15:00 51°14.61 2°46.896 26.3064 0.01855 0.097294 -3.020363
2011-08-17 13:16:00 51°14.457 2°46.706 26.3488 0.01855 0.097283 -3.020363
2011-08-17 13:17:00 51°14.301 2°46.527 26.3224 0.01855 0.097273 -3.020363
2011-08-17 13:18:00 51°14.153 2°46.341 26.3298 0.01855 0.097262 -3.020363
2011-08-17 13:19:00 51°13.999 2°46.168 26.369 0.01855 0.09725 -3.020363
2011-08-17 13:20:00 51°13.857 2°45.972 26.3347 0.01855 0.097241 -3.020363
2011-08-17 13:21:00 51°13.705 2°45.794 26.3781 0.01855 0.097229 -3.020363
2011-08-17 13:22:00 51°13.567 2°45.591 26.3513 0.01855 0.097218 -3.020363
2011-08-17 13:23:00 51°13.42 2°45.401 26.3708 0.01855 0.097208 -3.020363
2011-08-17 13:24:00 51°13.28 2°45.201 26.367 0.01855 0.097195 -3.020363
2011-08-17 13:25:00 51°13.134 2°45.013 26.3843 0.01855 0.097184 -3.020363
2011-08-17 13:26:00 51°12.995 2°44.816 26.3719 0.01855 0.097173 -3.020363
2011-08-17 13:27:00 51°12.853 2°44.622 26.398 0.01855 0.097161 -3.020363
2011-08-17 13:28:00 51°12.709 2°44.434 26.4102 0.01855 0.097149 -3.020363
2011-08-17 13:29:00 51°12.571 2°44.238 26.4391 0.01855 0.097137 -3.020363
2011-08-17 13:30:00 51°12.432 2°44.041 26.4146 0.01855 0.097126 -3.020363
2011-08-17 13:31:00 51°12.286 2°43.856 26.4154 0.01855 0.097113 -3.020363
2011-08-17 13:32:00 51°12.148 2°43.661 26.4045 0.01855 0.097101 -3.020363
2011-08-17 13:33:00 51°12.005 2°43.471 26.402 0.01855 0.097091 -3.020363
2011-08-17 13:34:00 51°11.862 2°43.281 26.4155 0.01855 0.097078 -3.020363
2011-08-17 13:35:00 51°11.715 2°43.099 26.4368 0.01855 0.097067 -3.020363
2011-08-17 13:36:00 51°11.558 2°42.93 26.4195 0.01855 0.097054 -3.020363
2011-08-17 13:37:00 51°11.407 2°42.749 26.4413 0.01855 0.097043 -3.020363
2011-08-17 13:38:00 51°11.25 2°42.576 26.4279 0.01855 0.097032 -3.020363
2011-08-17 13:39:00 51°11.097 2°42.419 26.4632 0.01855 0.097019 -3.020363
2011-08-17 13:40:00 51°11.055 2°42.309 26.4294 0.01855 0.097007 -3.020363
2011-08-17 13:41:00 51°11.046 2°42.217 26.4995 0.01855 0.096995 -3.020363
2011-08-17 13:42:00 51°11.066 2°42.151 26.4304 0.01855 0.096983 -3.020363
2011-08-17 13:43:00 51°11.072 2°42.087 26.5036 0.01855 0.096967 -3.020363
2011-08-17 13:44:00 51°11.092 2°42.075 26.4647 0.01855 0.096953 -3.020363
2011-08-17 13:45:00 51°11.106 2°42.088 26.4709 0.01855 0.096941 -3.020363
2011-08-17 13:46:00 51°11.119 2°42.107 26.464 0.01855 0.096928 -3.020363
2011-08-17 13:47:00 51°11.128 2°42.129 26.4757 0.01855 0.096917 -3.020363
2011-08-17 13:48:00 51°11.134 2°42.15 26.4909 0.01855 0.096907 -3.020363
2011-08-17 13:49:00 51°11.139 2°42.174 26.4737 0.01855 0.096896 -3.020363
2011-08-17 13:50:00 51°11.143 2°42.197 26.4763 0.01855 0.096887 -3.020363
2011-08-17 13:51:00 51°11.144 2°42.221 26.495 0.01855 0.096879 -3.020363
2011-08-17 13:52:00 51°11.144 2°42.245 26.4854 0.01855 0.096871 -3.020363
2011-08-17 13:53:00 51°11.146 2°42.27 26.4921 0.01855 0.096861 -3.020363
2011-08-17 13:54:00 51°11.148 2°42.296 26.4818 0.01855 0.096852 -3.020363
2011-08-17 13:55:00 51°11.149 2°42.321 26.495 0.01855 0.096844 -3.020363
2011-08-17 13:56:00 51°11.155 2°42.303 26.5063 0.01855 0.096838 -3.020363
2011-08-17 13:57:00 51°11.124 2°42.228 26.527 0.01855 0.096829 -3.020363
2011-08-17 13:58:00 51°11.086 2°42.116 26.5096 0.01855 0.09682 -3.020363
2011-08-17 13:59:00 51°11.023 2°42.106 26.476 0.01855 0.096812 -3.020363
2011-08-17 14:00:00 51°11.006 2°42.24 26.5515 0.01855 0.096804 -3.020363
2011-08-17 14:01:00 51°11.054 2°42.488 26.5586 0.01855 0.096791 -3.020363
2011-08-17 14:02:00 51°11.117 2°42.837 25.5853 0.01855 0.096784 -3.020363
2011-08-17 14:03:00 51°11.191 2°43.188 25.8375 0.01855 0.096776 -3.020363
2011-08-17 14:04:00 51°11.251 2°43.546 25.7609 0.01855 0.096771 -3.020363
2011-08-17 14:05:00 51°11.331 2°43.895 25.8599 0.01855 0.096763 -3.020363
2011-08-17 14:06:00 51°11.397 2°44.246 25.8447 0.01855 0.096758 -3.020363
2011-08-17 14:07:00 51°11.478 2°44.588 25.8386 0.01855 0.096751 -3.020363
2011-08-17 14:08:00 51°11.557 2°44.933 25.8707 0.01855 0.096744 -3.020363
2011-08-17 14:09:00 51°11.624 2°45.284 25.885 0.01855 0.096734 -3.020363
2011-08-17 14:10:00 51°11.693 2°45.633 25.9608 0.01855 0.096728 -3.020363
2011-08-17 14:11:00 51°11.774 2°45.975 25.9796 0.01855 0.09672 -3.020363
2011-08-17 14:12:00 51°11.848 2°46.324 25.9673 0.01855 0.096717 -3.020363
2011-08-17 14:13:00 51°11.921 2°46.674 25.9481 0.01855 0.09671 -3.020363
2011-08-17 14:14:00 51°12.009 2°47.013 25.997 0.01855 0.096706 -3.020363
2011-08-17 14:15:00 51°12.098 2°47.353 25.9686 0.01855 0.0967 -3.020363
2011-08-17 14:16:00 51°12.179 2°47.696 26.0055 0.01855 0.096698 -3.020363
2011-08-17 14:17:00 51°12.266 2°48.035 25.9984 0.01855 0.096693 -3.020363
2011-08-17 14:18:00 51°12.36 2°48.368 26.0014 0.01855 0.096688 -3.020363
2011-08-17 14:19:00 51°12.461 2°48.695 26.0013 0.01855 0.096684 -3.020363
2011-08-17 14:20:00 51°12.561 2°49.022 26.036 0.01855 0.09668 -3.020363
2011-08-17 14:21:00 51°12.664 2°49.349 26.0424 0.01855 0.096675 -3.020363
2011-08-17 14:22:00 51°12.76 2°49.68 26.052 0.01855 0.096674 -3.020363
2011-08-17 14:23:00 51°12.877 2°49.994 26.0739 0.01855 0.096671 -3.020363
2011-08-17 14:24:00 51°12.984 2°50.318 26.034 0.01855 0.096675 -3.020363
2011-08-17 14:25:00 51°13.098 2°50.634 26.0959 0.01855 0.096677 -3.020363
2011-08-17 14:26:00 51°13.213 2°50.952 26.0758 0.01855 0.096682 -3.020363
2011-08-17 14:27:00 51°13.323 2°51.275 26.0947 0.01855 0.096688 -3.020363
2011-08-17 14:28:00 51°13.434 2°51.595 26.0925 0.01855 0.096695 -3.020363
2011-08-17 14:29:00 51°13.546 2°51.915 26.0956 0.01855 0.096703 -3.020363
2011-08-17 14:30:00 51°13.658 2°52.231 26.0701 0.01855 0.09671 -3.020363
2011-08-17 14:31:00 51°13.771 2°52.547 26.089 0.01855 0.096717 -3.020363
2011-08-17 14:32:00 51°13.88 2°52.866 26.0778 0.01855 0.096724 -3.020363
2011-08-17 14:33:00 51°13.998 2°53.179 26.1051 0.01855 0.09673 -3.020363
2011-08-17 14:34:00 51°14.109 2°53.499 26.0962 0.01855 0.096742 -3.020363
2011-08-17 14:35:00 51°14.243 2°53.797 26.1135 0.01855 0.096758 -3.020363
2011-08-17 14:36:00 51°14.372 2°54.094 26.0919 0.018447 0.096255 -3.020363
2011-08-17 14:37:00 51°14.5 2°54.395 26.0971 0.018447 0.096271 -3.020363
2011-08-17 14:38:00 51°14.611 2°54.707 26.1641 0.018447 0.096288 -3.020363
2011-08-17 14:39:00 51°14.526 2°55.002 26.1357 0.018447 0.096303 -3.020363
2011-08-17 14:40:00 51°14.361 2°55.191 26.1037 0.018447 0.096316 -3.020363
2011-08-17 14:41:04 51°14.206 2°55.347 26.1034 0.018447 0.096323 -3.020363
2011-08-17 14:42:04 51°14.081 2°55.442 26.0919 0.018447 0.096329 -3.020363
2011-08-17 14:43:04 51°13.989 2°55.505 26.0807 0.018447 0.096336 -3.020363
2011-08-17 14:44:04 51°13.903 2°55.565 26.083 0.018447 0.096341 -3.020363
2011-08-17 14:45:04 51°13.819 2°55.627 26.0854 0.018447 0.096343 -3.020363
2011-08-17 14:46:04 51°13.75 2°55.716 26.0815 0.018447 0.096346 -3.020363
2011-08-17 14:47:04 51°13.691 2°55.82 26.0896 0.018447 0.096349 -3.020363
2011-08-17 14:48:04 51°13.653 2°55.905 26.0901 0.018447 0.09635 -3.020363
2011-08-17 14:49:04 51°13.639 2°55.979 26.0902 0.018447 0.096352 -3.020363
2011-08-17 14:50:04 51°13.635 2°56.014 26.0959 0.018447 0.09635 -3.020363